Cristian Montero

Chief Scout - Universitario Popayan
25 Dec 2027
Saturday
Process

Personality

Adaptability (1) Ambition (15) Controversy (8) Loyalty (10) Pressure (14) Professionalism (10) Sportsmanship (6) Temperament (1)

Profile

Coaching Style Democratic
License Continental A
Determination 9
Man Management 3
Motivating 9
Discipline 4
Job Satisfaction
93%
Fatigue
0%
Role Chief Scout
Wage 14.3K p/w
Contract 14.03.2028

Performance

Behaviour Good
Training Effectiveness
23%
Player Development
45%
Injury Prevention
15%
Tactical Implementation
20%

Recent Events

Attended a recruitment meeting now
Recommended a transfer target now
Recommended a transfer target now
Recommended a transfer target now
Recommended a transfer target now
Presented a dossier to the board now
Contract negotiation started now
Contract negotiation started now

Currently Monitoring

126
Player Club Status Ability Confidence Watched Last Observed Latest Vote
Joshef Zea Tigres Negotiating 78 / 80 69% 1 13.12.2027 Approve
Emmanuel Pasos Leones Active 89 / 98 65% 1 21.06.2027 Approve
Leyner Liñan Barranquilla Active 89 / 84 65% 1 14.06.2027 Approve
Édier Ocampo Vancouver Whitecaps Active 127 / 109 40% 2 22.12.2026 -
Gonzalo Pérez Lanús Active 120 / 114 40% 2 22.12.2026 -
Luis Olivera Defensores Unidos Active 118 / 100 40% 2 22.12.2026 -
Julian Beltrán Llaneros Active 67 / 82 65% 1 07.12.2026 Approve
Andrés Murillo Segura Atlético Madrid Active 117 / 123 40% 1 30.11.2026 -
Luigi Cendales Godoy Cruz Active 82 / 90 40% 1 30.11.2026 -
Gabriel Báez Talleres Active 115 / 119 40% 3 29.11.2026 -
Tomás Bottari Independiente Rivadavia Active 119 / 125 40% 1 29.11.2026 -
Williams Alarcón Boca Juniors Active 122 / 130 40% 1 29.11.2026 -
Yvo Calleros Madryn Active 111 / 115 40% 2 27.11.2026 -
Alex Vigo Independiente Rivadavia Active 119 / 116 40% 2 27.11.2026 -
Jhon Palacios Orenburg Active 108 / 118 40% 1 26.11.2026 -
Dylan Guajardo Dorados Active 89 / 113 40% 1 26.11.2026 -
Yuri Casermeiro Central Córdoba SdE Active 113 / 108 40% 1 26.11.2026 -
Alexis Estupiñán 12 de Octubre Active 96 / 96 40% 2 25.11.2026 -
Óscar Vanegas Güemes Active 108 / 119 40% 3 23.11.2026 -
Fernando Duré Estudiantes Active 107 / 111 40% 1 21.11.2026 -
Tomás Escalante Plaza Colonia Active 117 / 130 40% 3 18.11.2026 -
Jefferson Díaz Minnesota United FC Active 108 / 118 40% 2 17.11.2026 -
Gonzalo Mottes Chacarita Juniors Active 111 / 125 40% 1 17.11.2026 -
Facundo Mallo Rosario Central Active 126 / 131 40% 1 17.11.2026 -
Cristian Díaz Zamora Active 96 / 87 40% 3 16.11.2026 -
Maximiliano Luayza Koot Tristán Suárez Active 115 / 112 40% 2 16.11.2026 -
Ánderson Mojica Charleroi Active 101 / 105 40% 1 15.11.2026 -
Santiago Gauna Almirante Brown Active 111 / 118 40% 1 15.11.2026 -
Tomás Oneto Güemes Active 114 / 105 40% 1 15.11.2026 -
Gustavo Abregú Instituto Active 119 / 118 40% 1 14.11.2026 -
Ignacio Rodríguez Racing Club Active 120 / 131 40% 1 14.11.2026 -
Facundo Miño Deportivo Riestra Active 124 / 117 40% 2 12.11.2026 -
Facundo Cardozo San Miguel Active 118 / 108 40% 1 12.11.2026 -
Yilson Mosquera Tarxien Rainbows Active 92 / 97 40% 1 12.11.2026 -
Stiven Vega Millonarios Active 113 / 115 40% 2 11.11.2026 -
Nathan Moriah-Welsh Mansfield Town Active 112 / 121 40% 1 11.11.2026 -
Julián Cosi Madryn Active 110 / 114 40% 1 11.11.2026 -
Stiven Valencia Zamora Active 92 / 107 40% 4 10.11.2026 -
Franco Hanashiro Colegiales Active 112 / 101 40% 3 09.11.2026 -
Eric Meza Estudiantes Active 122 / 126 40% 1 09.11.2026 -
Alejo Tabares All Boys Active 124 / 126 40% 1 09.11.2026 -
Christian Moreno Cobresal Active 103 / 97 40% 1 08.11.2026 -
Brian Mieres Mitre Active 105 / 108 40% 1 03.11.2026 -
Valentín Serrano Arsenal Active 105 / 106 40% 1 01.11.2026 -
Santiago Guzmán Lanús Active 111 / 114 40% 1 01.11.2026 -
Alejo Montero Newell's Old Boys Active 115 / 120 40% 2 31.10.2026 -
Guillermo Cotugno Racing Active 129 / 114 40% 1 31.10.2026 -
Tomás Rojas Atlanta Active 120 / 121 40% 2 30.10.2026 -
Jalil Elías Estudiantes Active 117 / 118 40% 1 27.10.2026 -
Siro Rosané Estudiantes Active 115 / 117 40% 1 27.10.2026 -
Mathías de Ritis San Lorenzo Active 121 / 119 40% 1 26.10.2026 -
Nahuel Gallardo San Martín Active 114 / 112 40% 1 26.10.2026 -
Iván Tapia Barracas Central Active 114 / 121 40% 1 26.10.2026 -
Rômulo Tigres Active 111 / 127 40% 3 25.10.2026 -
Nelson Palacio Toronto FC Active 114 / 108 40% 2 25.10.2026 -
David Montoya Charleroi Active 99 / 103 40% 1 24.10.2026 -
Aldo López Santos Laguna Active 127 / 125 40% 2 23.10.2026 -
Milton Valenzuela Atlas Active 130 / 109 40% 2 20.10.2026 -
Franco Díaz Temperley Active 114 / 129 40% 1 20.10.2026 -
Ronaldo De Jesús Lanús Active 124 / 123 40% 1 20.10.2026 -
Rodrigo Melo Estudiantes Active 119 / 113 40% 1 18.10.2026 -
Kevin Palacios Santos Laguna Active 117 / 116 40% 2 17.10.2026 -
Lautaro Di Lollo Boca Juniors Active 122 / 130 40% 1 17.10.2026 -
Juan David Bacca Iquique Active 84 / 76 40% 1 16.10.2026 -
Gonzalo Gamarra Defensores Active 114 / 114 40% 1 16.10.2026 -
Santiago Simón Toluca Active 120 / 109 40% 2 15.10.2026 -
Gabriel Risso Patrón Colón Active 115 / 125 40% 1 15.10.2026 -
Erick Aguirre Monterrey Active 135 / 113 40% 1 13.10.2026 -
Delfor Minervino Estudiantes Active 108 / 112 40% 1 13.10.2026 -
Braian Aranda Agropecuario Argentino Active 113 / 117 40% 1 12.10.2026 -
Juan Yangali San Telmo Active 116 / 119 40% 1 12.10.2026 -
Osvaldo Rodríguez Tigres Active 133 / 118 40% 1 11.10.2026 -
Dixon Rentería San Miguel Active 103 / 107 40% 1 11.10.2026 -
Fabián Chaverra Trujillanos Active 97 / 93 40% 3 10.10.2026 -
Leandro Lozano Boca Juniors Active 119 / 113 40% 2 07.10.2026 -
Facundo Melillán Güemes Active 113 / 109 40% 1 07.10.2026 -
Agustín Bolívar Quilmes Active 108 / 121 40% 1 06.10.2026 -
Lucas Arce Godoy Cruz Active 124 / 112 40% 1 06.10.2026 -
Diego Hernández Aguilas Doradas Active 112 / 125 40% 1 04.10.2026 -
Luis Caicedo Independiente Active 113 / 101 40% 1 04.10.2026 -
Agustín Ojeda Chaco For Ever Active 108 / 113 40% 1 03.10.2026 -
Juan Ignacio Méndez Instituto Active 126 / 117 40% 1 03.10.2026 -
Andrés Micolta Pachuca Active 105 / 108 40% 1 01.10.2026 -
Emiliano Ancheta Nacional Active 124 / 120 40% 1 29.09.2026 -
Marco Saravia Progreso Active 114 / 109 40% 1 29.09.2026 -
Miguel Hernández Danubio Active 87 / 102 40% 2 28.09.2026 -
Salva Ruiz Huesca Active 120 / 124 40% 1 28.09.2026 -
Santiago Corbo Miramar Misiones Active 98 / 108 40% 1 26.09.2026 -
Pedro Silva Torrejón Gimnasia La Plata Active 114 / 119 40% 1 26.09.2026 -
Emiliano Álvarez Progreso Active 112 / 125 40% 1 23.09.2026 -
Thiago Silvero Sevilla Active 125 / 136 40% 1 21.09.2026 -
Christian Larotonda Caracas Active 122 / 124 40% 1 20.09.2026 -
Ayrton Cougo Progreso Active 106 / 104 40% 1 16.09.2026 -
Alonso Aceves Monterrey Active 122 / 125 40% 1 16.09.2026 -
Guillem Molina Huesca Active 100 / 103 40% 1 15.09.2026 -
Bernardo Cerezo Universidad Catolica Active 117 / 111 40% 2 13.09.2026 -
José Caldera Deportivo Cali Active 124 / 116 40% 1 13.09.2026 -
Santiago Homenchenko Queretaro Active 94 / 92 40% 1 10.09.2026 -
Álvaro Cazula San Marcos de Arica Active 114 / 116 40% 1 09.09.2026 -
Vladimir Loroña Tigres Active 121 / 117 40% 1 03.09.2026 -
Bruno Duarte UTC Active 107 / 110 40% 2 02.09.2026 -
Cristhián Rivas Estudiantes de Merida Active 109 / 122 40% 1 30.08.2026 -
Gabriel Otero Atletico Venezuela Active 119 / 106 40% 1 30.08.2026 -
Yerko Águila San Marcos de Arica Active 103 / 93 40% 1 29.08.2026 -
Patricio Pizarro Huracán Active 104 / 102 40% 1 29.08.2026 -
Facundo Velazco San Marcos de Arica Active 95 / 113 40% 1 28.08.2026 -
Diego Osio Deportivo La Guaira Active 107 / 114 40% 1 28.08.2026 -
Alejandro Moreno Llaneros Active 120 / 129 40% 2 26.08.2026 -
Adrián Cuadra Antofagasta Active 95 / 113 40% 1 26.08.2026 -
Camilo Moya Union La Calera Active 112 / 95 40% 1 24.08.2026 -
Joel Godoy Sarmiento Active 102 / 128 40% 1 24.08.2026 -
Kevin Andrade Zenit Active 124 / 140 40% 1 21.08.2026 -
Nahuel Brunet Godoy Cruz Active 103 / 105 40% 1 18.08.2026 -
Mauricio Isais Pachuca Active 107 / 98 40% 1 16.08.2026 -
Ezequiel Neira Carabobo Active 122 / 118 40% 1 15.08.2026 -
Pedro Pedraza Pachuca Active 112 / 121 40% 1 11.08.2026 -
Adrián Montañez Deportivo Tachira Active 100 / 110 40% 1 10.08.2026 -
Bautista Barros Schelotto Gimnasia La Plata Active 112 / 123 40% 1 09.08.2026 -
Alexis Gutiérrez Club America Active 123 / 113 40% 1 08.08.2026 -
Marcelo Gaona Sport Huancayo Active 99 / 99 40% 1 07.08.2026 -
Jesús Rivas Pumas UNAM Active 122 / 107 40% 1 04.08.2026 -
Diego Martinez La Equidad Active 124 / 116 40% 1 03.08.2026 -
Juan Pablo Ludueña Unión de Santa Fe Active 105 / 116 40% 1 02.08.2026 -
Gabriel Díaz Sarmiento Active 115 / 113 40% 1 02.08.2026 -
Marc Aguado Elche Active 119 / 127 40% 1 01.08.2026 -
Matías Kabalín Ferro Carril Oeste Active 116 / 123 40% 1 01.08.2026 -